Farnsworth, Texas
Current Conditions -  °F | °C
As of 9:15 PM on Wednesday 22 Oct 2014 (Local Time) from KPYX Reporting Station
Overcast Overcast  
Wind Chill: 63°   Ceiling: 1400
Heat Index: 63°   Visibility: 10mi
Dew Point: 58°   Wind: 17mph
Humidity: 86%   Direction: 170°S
Pressure: 30.08"   Gusts: 24mph
Location:  36.32°N, 100.97°W
Report Text: KPYX 230215Z AUTO 17015G21KT 10SM OVC014 17/15 A3008 RMK AO2 T01700146
Loading
Personal Weather Stations






























Interactive Weather Map
Tropical Storm Tracking
New forecast layout! Learn more

10-Day Weather Forecast

Advertisements
Track Severe Weather on mobile